createdAt,value
2019-03-24T00:00:29.652Z,100598.22
2019-03-24T00:02:58.046Z,100586.46
2019-03-24T00:05:26.464Z,100588.37
2019-03-24T00:07:56.809Z,100593.35
2019-03-24T00:10:25.004Z,100589.21
2019-03-24T00:12:53.405Z,100592.30
2019-03-24T00:15:26.240Z,100590.88
2019-03-24T00:17:51.935Z,100580.81
2019-03-24T00:20:20.333Z,100586.78
2019-03-24T00:22:48.893Z,100584.28
2019-03-24T00:25:17.298Z,100584.61
2019-03-24T00:27:45.698Z,100586.73
2019-03-24T00:30:14.454Z,100577.42
2019-03-24T00:32:42.853Z,100575.45
2019-03-24T00:35:11.341Z,100575.45
2019-03-24T00:37:40.150Z,100571.57
2019-03-24T00:40:09.485Z,100574.53
2019-03-24T00:42:37.958Z,100570.39
2019-03-24T00:45:08.402Z,100566.97
2019-03-24T00:47:36.824Z,100563.76
2019-03-24T00:50:08.459Z,100561.75
2019-03-24T00:52:36.867Z,100564.48
2019-03-24T00:55:07.223Z,100553.35
2019-03-24T00:57:37.458Z,100548.19
2019-03-24T01:00:10.698Z,100555.73
2019-03-24T01:02:39.119Z,100554.95
2019-03-24T01:05:08.060Z,100556.02
2019-03-24T01:07:36.556Z,100552.22
2019-03-24T01:10:07.064Z,100548.00
2019-03-24T01:12:35.473Z,100553.41
2019-03-24T01:15:04.705Z,100551.47
2019-03-24T01:17:33.950Z,100548.46
2019-03-24T01:20:02.349Z,100550.98
2019-03-24T01:22:30.768Z,100544.55
2019-03-24T01:24:59.171Z,100544.42
2019-03-24T01:27:27.572Z,100542.41
2019-03-24T01:29:57.354Z,100540.95
2019-03-24T01:32:25.747Z,100532.50
2019-03-24T01:34:54.150Z,100535.09
2019-03-24T01:37:22.576Z,100530.05
2019-03-24T01:39:50.974Z,100527.89
2019-03-24T01:42:19.402Z,100527.97
2019-03-24T01:44:48.475Z,100527.32
2019-03-24T01:47:16.883Z,100522.77
2019-03-24T01:49:45.302Z,100520.83
2019-03-24T01:52:13.697Z,100522.63
2019-03-24T01:54:42.121Z,100516.61
2019-03-24T01:57:10.536Z,100520.22
2019-03-24T01:59:38.924Z,100517.92
2019-03-24T02:02:07.341Z,100517.20
2019-03-24T02:04:35.832Z,100515.16
2019-03-24T02:07:04.298Z,100512.08
2019-03-24T02:09:32.720Z,100502.33
2019-03-24T02:12:01.125Z,100498.59
2019-03-24T02:14:29.957Z,100497.77
2019-03-24T02:16:59.335Z,100501.45
2019-03-24T02:19:27.825Z,100504.28
2019-03-24T02:21:56.246Z,100500.86
2019-03-24T02:24:25.361Z,100497.95
2019-03-24T02:26:53.916Z,100495.00
2019-03-24T02:29:22.313Z,100495.98
2019-03-24T02:31:50.726Z,100496.81
2019-03-24T02:34:19.159Z,100495.98
2019-03-24T02:36:47.558Z,100496.73
2019-03-24T02:39:16.117Z,100492.18
2019-03-24T02:41:44.515Z,100491.11
2019-03-24T02:44:12.915Z,100485.17
2019-03-24T02:46:41.340Z,100487.05
2019-03-24T02:49:09.736Z,100487.95
2019-03-24T02:51:38.152Z,100479.89
2019-03-24T02:54:06.545Z,100481.70
2019-03-24T02:56:34.948Z,100485.09
2019-03-24T02:59:03.360Z,100479.76
2019-03-24T03:01:31.754Z,100480.46
2019-03-24T03:04:00.177Z,100482.02
2019-03-24T03:06:28.598Z,100483.63
2019-03-24T03:08:57.032Z,100480.23
2019-03-24T03:11:25.724Z,100482.84
2019-03-24T03:13:54.126Z,100476.65
2019-03-24T03:16:22.545Z,100475.77
2019-03-24T03:18:50.941Z,100472.19
2019-03-24T03:21:19.626Z,100477.64
2019-03-24T03:23:48.315Z,100476.98
2019-03-24T03:26:16.733Z,100478.11
2019-03-24T03:28:45.137Z,100476.56
2019-03-24T03:31:13.542Z,100474.69
2019-03-24T03:33:41.968Z,100473.70
2019-03-24T03:36:10.376Z,100473.22
2019-03-24T03:38:38.798Z,100478.90
2019-03-24T03:41:07.357Z,100472.09
2019-03-24T03:43:35.751Z,100466.81
2019-03-24T03:46:04.555Z,100461.38
2019-03-24T03:48:32.959Z,100465.11
2019-03-24T03:51:01.357Z,100460.39
2019-03-24T03:53:29.810Z,100452.11
2019-03-24T03:55:58.242Z,100451.28
2019-03-24T03:58:26.674Z,100453.09
2019-03-24T04:00:55.087Z,100460.70
2019-03-24T04:03:23.493Z,100453.53
2019-03-24T04:05:52.296Z,100455.33
2019-03-24T04:08:20.694Z,100450.61
2019-03-24T04:10:49.363Z,100453.92
2019-03-24T04:13:17.770Z,100455.45
2019-03-24T04:15:46.172Z,100452.55
2019-03-24T04:18:14.711Z,100453.37
2019-03-24T04:20:43.113Z,100450.11
2019-03-24T04:23:11.522Z,100451.88
2019-03-24T04:25:39.944Z,100455.70
2019-03-24T04:28:08.620Z,100455.55
2019-03-24T04:30:37.038Z,100454.59
2019-03-24T04:33:05.453Z,100457.11
2019-03-24T04:35:34.146Z,100452.81
2019-03-24T04:38:02.572Z,100454.82
2019-03-24T04:40:30.974Z,100449.88
2019-03-24T04:42:59.373Z,100448.66
2019-03-24T04:45:27.794Z,100450.87
2019-03-24T04:47:56.190Z,100450.91
2019-03-24T04:50:24.613Z,100447.61
2019-03-24T04:52:53.016Z,100452.23
2019-03-24T04:55:21.431Z,100454.48
2019-03-24T04:57:49.843Z,100460.67
2019-03-24T05:00:21.286Z,100473.03
2019-03-24T05:02:49.714Z,100467.08
2019-03-24T05:05:18.105Z,100468.11
2019-03-24T05:07:46.676Z,100468.75
2019-03-24T05:10:26.352Z,100469.30
2019-03-24T05:12:54.749Z,100467.30
2019-03-24T05:15:23.415Z,100471.67
2019-03-24T05:17:51.845Z,100471.99
2019-03-24T05:20:20.513Z,100475.66
2019-03-24T05:22:48.927Z,100475.39
2019-03-24T05:25:17.394Z,100473.98
2019-03-24T05:27:45.794Z,100467.70
2019-03-24T05:30:14.212Z,100470.94
2019-03-24T05:32:42.919Z,100475.83
2019-03-24T05:35:12.612Z,100468.09
2019-03-24T05:37:41.009Z,100470.78
2019-03-24T05:40:09.585Z,100478.88
2019-03-24T05:42:37.998Z,100478.67
2019-03-24T05:45:07.529Z,100474.55
2019-03-24T05:47:37.444Z,100480.76
2019-03-24T05:50:08.245Z,100481.70
2019-03-24T05:52:36.640Z,100473.50
2019-03-24T05:55:06.620Z,100482.57
2019-03-24T05:57:34.997Z,100474.83
2019-03-24T06:00:05.546Z,100475.23
2019-03-24T06:02:33.946Z,100482.05
2019-03-24T06:05:02.361Z,100477.84
2019-03-24T06:07:31.760Z,100475.77
2019-03-24T06:10:00.366Z,100475.11
2019-03-24T06:12:28.806Z,100474.80
2019-03-24T06:14:57.197Z,100472.70
2019-03-24T06:17:25.619Z,100475.23
2019-03-24T06:19:54.012Z,100480.12
2019-03-24T06:22:22.418Z,100483.27
2019-03-24T06:24:50.834Z,100491.57
2019-03-24T06:27:19.238Z,100489.73
2019-03-24T06:29:47.676Z,100493.31
2019-03-24T06:32:16.078Z,100502.73
2019-03-24T06:34:44.759Z,100498.64
2019-03-24T06:37:13.187Z,100497.68
2019-03-24T06:39:41.587Z,100500.71
2019-03-24T06:42:10.009Z,100496.72
2019-03-24T06:44:38.401Z,100491.09
2019-03-24T06:47:06.802Z,100488.36
2019-03-24T06:49:35.217Z,100485.49
2019-03-24T06:52:03.681Z,100482.94
2019-03-24T06:54:32.101Z,100477.30
2019-03-24T06:57:00.771Z,100482.88
2019-03-24T06:59:29.179Z,100487.27
2019-03-24T07:01:57.604Z,100489.88
2019-03-24T07:04:25.995Z,100478.55
2019-03-24T07:06:54.461Z,100477.18
2019-03-24T07:09:22.848Z,100484.65
2019-03-24T07:11:51.262Z,100480.85
2019-03-24T07:14:19.696Z,100483.19
2019-03-24T07:16:48.098Z,100483.34
2019-03-24T07:19:16.509Z,100483.91
2019-03-24T07:21:44.926Z,100486.55
2019-03-24T07:24:13.315Z,100487.11
2019-03-24T07:26:41.737Z,100487.20
2019-03-24T07:29:10.141Z,100482.87
2019-03-24T07:31:38.539Z,100490.00
2019-03-24T07:34:06.954Z,100482.27
2019-03-24T07:36:35.350Z,100482.39
2019-03-24T07:39:05.027Z,100472.52
2019-03-24T07:41:33.418Z,100470.16
2019-03-24T07:44:01.818Z,100469.27
2019-03-24T07:46:30.246Z,100463.00
2019-03-24T07:48:58.645Z,100457.61
2019-03-24T07:51:27.049Z,100460.34
2019-03-24T07:53:55.466Z,100460.08
2019-03-24T07:56:23.861Z,100449.97
2019-03-24T07:58:52.268Z,100448.89
2019-03-24T08:01:20.701Z,100444.96
2019-03-24T08:03:49.101Z,100445.08
2019-03-24T08:06:17.513Z,100444.20
2019-03-24T08:08:45.931Z,100442.77
2019-03-24T08:11:14.345Z,100439.95
2019-03-24T08:13:53.276Z,100445.44
2019-03-24T08:16:12.864Z,100447.86
2019-03-24T08:18:41.280Z,100456.64
2019-03-24T08:21:09.749Z,100452.74
2019-03-24T08:23:38.242Z,100455.42
2019-03-24T08:26:06.640Z,100451.77
2019-03-24T08:28:35.036Z,100450.41
2019-03-24T08:31:03.462Z,100447.31
2019-03-24T08:33:31.858Z,100448.27
2019-03-24T08:36:00.282Z,100447.57
2019-03-24T08:38:28.685Z,100450.20
2019-03-24T08:40:57.114Z,100438.60
2019-03-24T08:43:25.508Z,100437.41
2019-03-24T08:45:53.905Z,100440.69
2019-03-24T08:48:22.304Z,100436.20
2019-03-24T08:50:50.727Z,100435.76
2019-03-24T08:53:19.125Z,100435.22
2019-03-24T08:55:47.560Z,100432.59
2019-03-24T08:58:15.963Z,100429.64
2019-03-24T09:00:45.068Z,100423.58
2019-03-24T09:03:13.486Z,100421.94
2019-03-24T09:05:41.883Z,100424.98
2019-03-24T09:08:10.283Z,100418.61
2019-03-24T09:10:38.705Z,100414.98
2019-03-24T09:13:07.114Z,100415.23
2019-03-24T09:15:35.509Z,100405.41
2019-03-24T09:18:03.938Z,100408.11
2019-03-24T09:20:41.207Z,100409.37
2019-03-24T09:23:02.496Z,100411.14
2019-03-24T09:25:30.970Z,100413.84
2019-03-24T09:27:59.477Z,100411.52
2019-03-24T09:30:32.391Z,100405.63
2019-03-24T09:33:00.793Z,100406.34
2019-03-24T09:35:29.455Z,100404.96
2019-03-24T09:37:58.103Z,100400.14
2019-03-24T09:40:35.005Z,100395.25
2019-03-24T09:43:04.640Z,100389.80
2019-03-24T09:45:33.480Z,100393.84
2019-03-24T09:48:02.073Z,100394.53
2019-03-24T09:50:30.549Z,100389.30
2019-03-24T09:52:59.055Z,100387.89
2019-03-24T09:55:27.453Z,100382.08
2019-03-24T09:57:55.857Z,100374.59
2019-03-24T10:00:24.256Z,100369.58
2019-03-24T10:02:52.706Z,100366.11
2019-03-24T10:05:21.170Z,100360.50
2019-03-24T10:07:49.581Z,100361.39
2019-03-24T10:10:18.015Z,100356.76
2019-03-24T10:12:46.425Z,100357.28
2019-03-24T10:15:15.088Z,100359.97
2019-03-24T10:17:43.959Z,100359.84
2019-03-24T10:20:12.619Z,100352.58
2019-03-24T10:22:41.359Z,100363.20
2019-03-24T10:25:09.780Z,100364.27
2019-03-24T10:27:38.192Z,100376.41
2019-03-24T10:30:08.843Z,100375.63
2019-03-24T10:32:37.285Z,100383.24
2019-03-24T10:35:07.236Z,100380.64
2019-03-24T10:37:35.667Z,100378.92
2019-03-24T10:40:05.305Z,100379.03
2019-03-24T10:42:33.708Z,100374.25
2019-03-24T10:45:02.200Z,100376.44
2019-03-24T10:47:30.883Z,100370.70
2019-03-24T10:49:59.667Z,100367.64
2019-03-24T10:52:28.075Z,100369.39
2019-03-24T10:54:56.503Z,100363.64
2019-03-24T10:57:24.908Z,100362.31
2019-03-24T10:59:53.337Z,100358.77
2019-03-24T11:02:21.919Z,100352.16
2019-03-24T11:04:50.318Z,100346.83
2019-03-24T11:07:18.745Z,100347.20
2019-03-24T11:09:47.144Z,100344.07
2019-03-24T11:12:15.563Z,100345.86
2019-03-24T11:14:43.981Z,100340.12
2019-03-24T11:17:12.395Z,100345.45
2019-03-24T11:19:40.793Z,100344.11
2019-03-24T11:22:09.225Z,100339.66
2019-03-24T11:24:37.629Z,100337.46
2019-03-24T11:27:06.037Z,100340.08
2019-03-24T11:29:34.463Z,100336.94
2019-03-24T11:32:02.879Z,100336.44
2019-03-24T11:34:31.277Z,100333.68
2019-03-24T11:36:59.701Z,100338.02
2019-03-24T11:41:49.372Z,100333.13
2019-03-24T11:44:17.786Z,100340.25
2019-03-24T11:46:46.198Z,100335.04
2019-03-24T11:49:19.488Z,100334.70
2019-03-24T11:51:47.925Z,100332.09
2019-03-24T11:54:16.674Z,100333.45
2019-03-24T11:56:45.088Z,100333.92
2019-03-24T11:59:13.481Z,100333.50
2019-03-24T12:01:41.909Z,100328.23
2019-03-24T12:04:10.312Z,100331.34
2019-03-24T12:06:38.740Z,100328.27
2019-03-24T12:09:07.553Z,100329.16
2019-03-24T12:11:35.955Z,100329.61
2019-03-24T12:14:04.918Z,100339.32
2019-03-24T12:16:34.119Z,100331.32
2019-03-24T12:19:02.516Z,100323.34
2019-03-24T12:21:30.948Z,100328.64
2019-03-24T12:23:59.400Z,100331.27
2019-03-24T12:26:27.756Z,100326.82
2019-03-24T12:28:56.196Z,100319.77
2019-03-24T12:31:24.672Z,100314.45
2019-03-24T12:33:53.075Z,100323.76
2019-03-24T12:36:21.501Z,100321.52
2019-03-24T12:38:49.911Z,100313.59
2019-03-24T12:41:18.312Z,100310.50
2019-03-24T12:43:46.768Z,100305.67
2019-03-24T12:46:15.154Z,100301.27
2019-03-24T12:48:43.558Z,100299.11
2019-03-24T12:51:12.001Z,100291.59
2019-03-24T12:53:40.399Z,100283.20
2019-03-24T12:56:08.803Z,100281.87
2019-03-24T12:58:37.244Z,100286.30
2019-03-24T13:01:05.725Z,100286.30
2019-03-24T13:03:35.874Z,100284.52
2019-03-24T13:06:04.863Z,100282.31
2019-03-24T13:08:33.261Z,100283.14
2019-03-24T13:11:01.660Z,100290.67
2019-03-24T13:13:30.090Z,100284.50
2019-03-24T13:15:58.493Z,100280.55
2019-03-24T13:18:26.899Z,100280.10
2019-03-24T13:20:55.509Z,100278.34
2019-03-24T13:23:23.911Z,100284.54
2019-03-24T13:25:52.381Z,100276.58
2019-03-24T13:28:20.829Z,100274.39
2019-03-24T13:30:49.209Z,100274.37
2019-03-24T13:33:17.696Z,100271.29
2019-03-24T13:35:47.282Z,100272.16
2019-03-24T13:38:15.687Z,100268.62
2019-03-24T13:40:44.088Z,100260.23
2019-03-24T13:43:12.511Z,100263.33
2019-03-24T13:45:40.906Z,100258.91
2019-03-24T13:48:09.348Z,100276.57
2019-03-24T13:50:37.750Z,100276.57
2019-03-24T13:53:06.154Z,100278.35
2019-03-24T13:55:34.579Z,100273.45
2019-03-24T13:58:04.065Z,100275.21
2019-03-24T14:00:32.468Z,100275.20
2019-03-24T14:03:01.180Z,100275.64
2019-03-24T14:05:29.590Z,100272.98
2019-03-24T14:07:57.997Z,100277.41
2019-03-24T14:10:26.415Z,100276.50
2019-03-24T14:12:54.819Z,100272.10
2019-03-24T14:15:23.220Z,100275.60
2019-03-24T14:17:51.651Z,100274.70
2019-03-24T14:20:20.058Z,100276.47
2019-03-24T14:22:48.465Z,100287.92
2019-03-24T14:25:16.888Z,100287.94
2019-03-24T14:27:45.291Z,100280.87
2019-03-24T14:30:14.226Z,100283.51
2019-03-24T14:32:42.663Z,100286.10
2019-03-24T14:35:11.585Z,100294.44
2019-03-24T14:37:39.994Z,100286.91
2019-03-24T14:40:08.865Z,100288.63
2019-03-24T14:42:37.302Z,100289.48
2019-03-24T14:45:09.103Z,100293.00
2019-03-24T14:47:38.089Z,100280.63
2019-03-24T14:50:12.181Z,100285.91
2019-03-24T14:52:40.611Z,100282.36
2019-03-24T14:55:09.198Z,100277.03
2019-03-24T14:57:37.604Z,100283.21
2019-03-24T15:00:07.923Z,100277.95
2019-03-24T15:02:36.357Z,100274.45
2019-03-24T15:05:06.989Z,100274.91
2019-03-24T15:07:35.395Z,100271.84
2019-03-24T15:10:07.866Z,100270.95
2019-03-24T15:12:36.283Z,100272.30
2019-03-24T15:15:07.454Z,100267.47
2019-03-24T15:17:36.134Z,100260.48
2019-03-24T15:20:06.487Z,100253.49
2019-03-24T15:22:34.906Z,100242.03
2019-03-24T15:25:03.376Z,100248.66
2019-03-24T15:27:31.803Z,100247.77
2019-03-24T15:30:00.459Z,100247.77
2019-03-24T15:32:28.908Z,100243.78
2019-03-24T15:34:57.317Z,100245.11
2019-03-24T15:37:25.755Z,100255.22
2019-03-24T15:39:54.151Z,100257.85
2019-03-24T15:42:22.560Z,100261.38
2019-03-24T15:44:50.986Z,100257.84
2019-03-24T15:47:19.391Z,100252.11
2019-03-24T15:49:48.122Z,100251.63
2019-03-24T15:52:16.553Z,100256.52
2019-03-24T15:54:44.952Z,100251.63
2019-03-24T15:57:13.354Z,100254.30
2019-03-24T15:59:42.454Z,100258.66
2019-03-24T16:02:10.851Z,100261.74
2019-03-24T16:04:39.287Z,100254.22
2019-03-24T16:07:07.692Z,100252.45
2019-03-24T16:09:36.103Z,100251.14
2019-03-24T16:12:04.531Z,100244.14
2019-03-24T16:14:32.936Z,100234.08
2019-03-24T16:17:01.340Z,100235.46
2019-03-24T16:19:29.773Z,100239.89
2019-03-24T16:21:58.470Z,100239.36
2019-03-24T16:24:26.889Z,100242.48
2019-03-24T16:26:55.314Z,100240.78
2019-03-24T16:29:23.720Z,100246.05
2019-03-24T16:31:52.119Z,100244.67
2019-03-24T16:34:20.552Z,100253.02
2019-03-24T16:36:48.949Z,100256.92
2019-03-24T16:39:17.353Z,100251.14
2019-03-24T16:41:45.773Z,100256.38
2019-03-24T16:44:14.172Z,100261.63
2019-03-24T16:46:44.261Z,100256.27
2019-03-24T16:49:12.670Z,100254.86
2019-03-24T16:51:41.713Z,100259.16
2019-03-24T16:54:10.174Z,100261.77
2019-03-24T16:56:38.567Z,100250.69
2019-03-24T16:59:06.973Z,100253.73
2019-03-24T17:01:35.388Z,100250.15
2019-03-24T17:04:03.797Z,100246.06
2019-03-24T17:06:32.196Z,100255.29
2019-03-24T17:09:01.071Z,100248.13
2019-03-24T17:11:29.467Z,100249.88
2019-03-24T17:13:57.868Z,100251.57
2019-03-24T17:16:26.298Z,100252.38
2019-03-24T17:18:54.706Z,100251.94
2019-03-24T17:21:23.103Z,100254.92
2019-03-24T17:23:51.585Z,100257.50
2019-03-24T17:26:19.997Z,100244.22
2019-03-24T17:28:48.392Z,100257.37
2019-03-24T17:31:16.811Z,100244.09
2019-03-24T17:33:45.214Z,100253.75
2019-03-24T17:36:13.661Z,100253.73
2019-03-24T17:38:42.068Z,100251.08
2019-03-24T17:41:10.466Z,100257.20
2019-03-24T17:43:38.866Z,100256.23
2019-03-24T17:46:07.567Z,100257.45
2019-03-24T17:48:35.970Z,100254.67
2019-03-24T17:51:04.368Z,100259.89
2019-03-24T17:53:32.784Z,100253.13
2019-03-24T17:56:01.218Z,100256.19
2019-03-24T17:58:29.620Z,100257.44
2019-03-24T18:00:58.061Z,100259.98
2019-03-24T18:03:26.460Z,100266.41
2019-03-24T18:05:54.887Z,100257.45
2019-03-24T18:08:23.294Z,100264.75
2019-03-24T18:10:52.024Z,100261.03
2019-03-24T18:13:20.440Z,100265.27
2019-03-24T18:15:48.832Z,100272.03
2019-03-24T18:18:17.224Z,100271.31
2019-03-24T18:20:45.958Z,100275.05
2019-03-24T18:23:14.351Z,100283.63
2019-03-24T18:25:42.747Z,100293.98
2019-03-24T18:28:11.172Z,100294.16
2019-03-24T18:30:39.571Z,100289.00
2019-03-24T18:33:07.967Z,100292.42
2019-03-24T18:35:36.392Z,100290.39
2019-03-24T18:38:05.126Z,100299.45
2019-03-24T18:40:33.524Z,100293.84
2019-03-24T18:43:01.931Z,100299.14
2019-03-24T18:45:30.441Z,100299.14
2019-03-24T18:47:59.130Z,100308.59
2019-03-24T18:50:27.543Z,100302.27
2019-03-24T18:52:55.944Z,100307.78
2019-03-24T18:55:24.361Z,100304.17
2019-03-24T18:57:52.749Z,100302.48
2019-03-24T19:00:21.685Z,100305.77
2019-03-24T19:02:50.100Z,100306.42
2019-03-24T19:05:19.068Z,100316.55
2019-03-24T19:07:48.761Z,100324.13
2019-03-24T19:10:17.322Z,100321.96
2019-03-24T19:12:45.721Z,100328.52
2019-03-24T19:15:16.219Z,100322.84
2019-03-24T19:17:44.772Z,100328.97
2019-03-24T19:20:13.701Z,100330.89
2019-03-24T19:22:42.098Z,100329.14
2019-03-24T19:25:10.845Z,100322.22
2019-03-24T19:27:39.240Z,100324.54
2019-03-24T19:30:10.712Z,100323.19
2019-03-24T19:32:39.104Z,100325.95
2019-03-24T19:35:08.034Z,100320.24
2019-03-24T19:37:36.992Z,100320.45
2019-03-24T19:40:08.445Z,100324.40
2019-03-24T19:42:36.837Z,100321.52
2019-03-24T19:45:06.701Z,100326.92
2019-03-24T19:47:35.099Z,100323.75
2019-03-24T19:50:04.638Z,100319.11
2019-03-24T19:52:40.513Z,100323.14
2019-03-24T19:55:03.448Z,100323.89
2019-03-24T19:57:31.834Z,100334.63
2019-03-24T20:00:00.364Z,100330.55
2019-03-24T20:02:28.816Z,100327.92
2019-03-24T20:04:57.232Z,100326.94
2019-03-24T20:07:25.627Z,100322.73
2019-03-24T20:09:54.019Z,100323.09
2019-03-24T20:12:22.432Z,100317.48
2019-03-24T20:14:51.103Z,100321.16
2019-03-24T20:17:19.515Z,100325.00
2019-03-24T20:19:47.909Z,100326.62
2019-03-24T20:22:16.300Z,100327.88
2019-03-24T20:24:44.720Z,100327.83
2019-03-24T20:27:13.110Z,100319.16
2019-03-24T20:29:41.524Z,100328.42
2019-03-24T20:32:09.918Z,100328.77
2019-03-24T20:34:38.322Z,100325.73
2019-03-24T20:37:06.732Z,100328.34
2019-03-24T20:39:35.395Z,100325.09
2019-03-24T20:42:03.784Z,100326.64
2019-03-24T20:44:32.199Z,100325.85
2019-03-24T20:47:00.589Z,100321.28
2019-03-24T20:49:28.982Z,100322.22
2019-03-24T20:51:57.400Z,100318.59
2019-03-24T20:54:25.824Z,100320.91
2019-03-24T20:56:54.206Z,100321.95
2019-03-24T20:59:22.623Z,100322.01
2019-03-24T21:01:51.012Z,100324.48
2019-03-24T21:04:20.352Z,100318.45
2019-03-24T21:06:48.901Z,100317.88
2019-03-24T21:09:17.297Z,100324.34
2019-03-24T21:11:45.691Z,100312.98
2019-03-24T21:14:14.108Z,100316.44
2019-03-24T21:16:42.497Z,100313.81
2019-03-24T21:19:10.899Z,100315.05
2019-03-24T21:21:39.315Z,100318.16
2019-03-24T21:24:07.711Z,100321.72
2019-03-24T21:26:36.097Z,100328.21
2019-03-24T21:29:04.517Z,100325.76
2019-03-24T21:31:32.911Z,100328.96
2019-03-24T21:34:01.312Z,100327.88
2019-03-24T21:36:29.719Z,100318.06
2019-03-24T21:38:58.110Z,100316.15
2019-03-24T21:41:26.598Z,100316.98
2019-03-24T21:43:54.992Z,100317.53
2019-03-24T21:46:23.383Z,100313.70
2019-03-24T21:48:51.804Z,100316.86
2019-03-24T21:51:20.192Z,100318.37
2019-03-24T21:53:48.586Z,100321.93
2019-03-24T21:56:17.004Z,100325.36
2019-03-24T21:58:45.399Z,100325.75
2019-03-24T22:01:13.799Z,100333.03
2019-03-24T22:03:42.229Z,100322.36
2019-03-24T22:06:10.626Z,100324.83
2019-03-24T22:08:39.021Z,100330.87
2019-03-24T22:11:07.456Z,100323.92
2019-03-24T22:13:35.851Z,100328.80
2019-03-24T22:16:04.249Z,100326.58
2019-03-24T22:18:32.979Z,100331.57
2019-03-24T22:21:01.379Z,100336.17
2019-03-24T22:23:29.774Z,100339.61
2019-03-24T22:25:58.190Z,100336.06
2019-03-24T22:28:26.581Z,100334.74
2019-03-24T22:30:54.977Z,100332.44
2019-03-24T22:33:23.402Z,100330.26
2019-03-24T22:35:52.144Z,100337.09
2019-03-24T22:38:20.542Z,100332.13
2019-03-24T22:40:48.952Z,100329.20
2019-03-24T22:43:17.342Z,100318.59
2019-03-24T22:45:45.736Z,100322.33
2019-03-24T22:48:14.163Z,100325.16
2019-03-24T22:50:42.549Z,100329.73
2019-03-24T22:53:10.963Z,100337.92
2019-03-24T22:55:39.676Z,100335.70
2019-03-24T22:58:08.097Z,100331.22
2019-03-24T23:00:52.879Z,100318.56
2019-03-24T23:03:21.547Z,100313.55
2019-03-24T23:05:49.960Z,100316.11
2019-03-24T23:08:18.429Z,100311.58
2019-03-24T23:10:46.827Z,100307.52
2019-03-24T23:13:15.242Z,100317.10
2019-03-24T23:15:43.642Z,100313.55
2019-03-24T23:18:12.032Z,100307.72
2019-03-24T23:20:40.694Z,100310.91
2019-03-24T23:23:09.083Z,100302.26
2019-03-24T23:25:37.486Z,100307.72
2019-03-24T23:28:06.381Z,100304.59
2019-03-24T23:30:34.992Z,100305.56
2019-03-24T23:33:03.883Z,100310.12
2019-03-24T23:35:32.302Z,100312.14
2019-03-24T23:38:00.767Z,100306.69
2019-03-24T23:40:29.531Z,100306.48
2019-03-24T23:42:57.943Z,100300.61
2019-03-24T23:45:26.590Z,100295.09
2019-03-24T23:47:54.980Z,100290.05
2019-03-24T23:50:23.392Z,100289.60
2019-03-24T23:52:51.847Z,100296.52
2019-03-24T23:55:20.270Z,100289.65
2019-03-24T23:57:48.656Z,100300.06
